sensor_id;sensor_type;location;lat;lon;timestamp;P1;durP1;ratioP1;P2;durP2;ratioP2
1613;SDS011;800;48.824;9.346;2023-03-24T00:01:49;3.67;;;3.30;;
1613;SDS011;800;48.824;9.346;2023-03-24T00:04:15;3.73;;;2.97;;
1613;SDS011;800;48.824;9.346;2023-03-24T00:06:41;3.47;;;3.07;;
1613;SDS011;800;48.824;9.346;2023-03-24T00:09:07;3.63;;;3.30;;
1613;SDS011;800;48.824;9.346;2023-03-24T00:11:33;3.20;;;2.90;;
1613;SDS011;800;48.824;9.346;2023-03-24T00:13:59;3.20;;;2.70;;
1613;SDS011;800;48.824;9.346;2023-03-24T00:16:26;2.60;;;2.40;;
1613;SDS011;800;48.824;9.346;2023-03-24T00:18:52;2.90;;;2.63;;
1613;SDS011;800;48.824;9.346;2023-03-24T00:21:19;3.60;;;2.50;;
1613;SDS011;800;48.824;9.346;2023-03-24T00:23:47;4.37;;;3.07;;
1613;SDS011;800;48.824;9.346;2023-03-24T00:26:13;3.20;;;2.90;;
1613;SDS011;800;48.824;9.346;2023-03-24T00:28:41;3.43;;;3.13;;
1613;SDS011;800;48.824;9.346;2023-03-24T00:31:08;3.77;;;3.10;;
1613;SDS011;800;48.824;9.346;2023-03-24T00:33:35;3.30;;;2.67;;
1613;SDS011;800;48.824;9.346;2023-03-24T00:36:02;2.60;;;2.40;;
1613;SDS011;800;48.824;9.346;2023-03-24T00:38:29;2.50;;;2.30;;
1613;SDS011;800;48.824;9.346;2023-03-24T00:40:56;3.50;;;2.63;;
1613;SDS011;800;48.824;9.346;2023-03-24T00:43:24;2.60;;;2.40;;
1613;SDS011;800;48.824;9.346;2023-03-24T00:45:49;2.33;;;2.13;;
1613;SDS011;800;48.824;9.346;2023-03-24T00:48:21;3.50;;;3.20;;
1613;SDS011;800;48.824;9.346;2023-03-24T00:50:49;4.67;;;3.33;;
1613;SDS011;800;48.824;9.346;2023-03-24T00:53:16;2.80;;;2.60;;
1613;SDS011;800;48.824;9.346;2023-03-24T00:55:43;2.50;;;2.30;;
1613;SDS011;800;48.824;9.346;2023-03-24T00:58:10;2.87;;;2.63;;
1613;SDS011;800;48.824;9.346;2023-03-24T01:00:42;2.90;;;2.43;;
1613;SDS011;800;48.824;9.346;2023-03-24T01:03:08;3.70;;;2.53;;
1613;SDS011;800;48.824;9.346;2023-03-24T01:05:34;2.77;;;2.23;;
1613;SDS011;800;48.824;9.346;2023-03-24T01:08:00;3.97;;;2.40;;
1613;SDS011;800;48.824;9.346;2023-03-24T01:10:27;2.40;;;2.20;;
1613;SDS011;800;48.824;9.346;2023-03-24T01:12:55;2.23;;;2.10;;
1613;SDS011;800;48.824;9.346;2023-03-24T01:15:23;3.17;;;2.77;;
1613;SDS011;800;48.824;9.346;2023-03-24T01:17:51;2.00;;;1.87;;
1613;SDS011;800;48.824;9.346;2023-03-24T01:20:18;2.23;;;2.03;;
1613;SDS011;800;48.824;9.346;2023-03-24T01:22:44;2.20;;;2.00;;
1613;SDS011;800;48.824;9.346;2023-03-24T01:25:14;7.93;;;2.33;;
1613;SDS011;800;48.824;9.346;2023-03-24T01:27:42;2.70;;;2.33;;
1613;SDS011;800;48.824;9.346;2023-03-24T01:30:11;2.30;;;2.10;;
1613;SDS011;800;48.824;9.346;2023-03-24T01:32:38;3.10;;;2.30;;
1613;SDS011;800;48.824;9.346;2023-03-24T01:35:04;3.07;;;2.33;;
1613;SDS011;800;48.824;9.346;2023-03-24T01:37:30;3.30;;;2.27;;
1613;SDS011;800;48.824;9.346;2023-03-24T01:39:56;3.33;;;2.40;;
1613;SDS011;800;48.824;9.346;2023-03-24T01:42:22;2.93;;;2.50;;
1613;SDS011;800;48.824;9.346;2023-03-24T01:44:50;2.60;;;2.27;;
1613;SDS011;800;48.824;9.346;2023-03-24T01:47:18;3.50;;;2.40;;
1613;SDS011;800;48.824;9.346;2023-03-24T01:49:46;2.60;;;2.40;;
1613;SDS011;800;48.824;9.346;2023-03-24T01:52:24;2.83;;;2.53;;
1613;SDS011;800;48.824;9.346;2023-03-24T01:54:57;3.97;;;2.63;;
1613;SDS011;800;48.824;9.346;2023-03-24T01:57:30;2.63;;;2.40;;
1613;SDS011;800;48.824;9.346;2023-03-24T01:59:58;2.80;;;2.60;;
1613;SDS011;800;48.824;9.346;2023-03-24T02:02:29;3.43;;;2.60;;
1613;SDS011;800;48.824;9.346;2023-03-24T02:05:00;3.57;;;2.33;;
1613;SDS011;800;48.824;9.346;2023-03-24T02:07:32;3.63;;;2.23;;
1613;SDS011;800;48.824;9.346;2023-03-24T02:10:09;2.40;;;2.20;;
1613;SDS011;800;48.824;9.346;2023-03-24T02:12:37;2.07;;;1.97;;
1613;SDS011;800;48.824;9.346;2023-03-24T02:15:05;3.27;;;2.97;;
1613;SDS011;800;48.824;9.346;2023-03-24T02:23:28;2.50;;;2.30;;
1613;SDS011;800;48.824;9.346;2023-03-24T02:31:52;3.43;;;2.30;;
1613;SDS011;800;48.824;9.346;2023-03-24T02:34:58;2.23;;;2.03;;
1613;SDS011;800;48.824;9.346;2023-03-24T02:40:10;3.10;;;2.50;;
1613;SDS011;800;48.824;9.346;2023-03-24T02:43:01;3.00;;;2.00;;
1613;SDS011;800;48.824;9.346;2023-03-24T02:45:50;2.23;;;2.03;;
1613;SDS011;800;48.824;9.346;2023-03-24T02:54:28;3.20;;;1.87;;
1613;SDS011;800;48.824;9.346;2023-03-24T03:00:05;2.63;;;2.30;;
1613;SDS011;800;48.824;9.346;2023-03-24T03:02:44;2.90;;;1.90;;
1613;SDS011;800;48.824;9.346;2023-03-24T03:05:25;2.63;;;2.43;;
1613;SDS011;800;48.824;9.346;2023-03-24T03:07:54;2.93;;;2.00;;
1613;SDS011;800;48.824;9.346;2023-03-24T03:10:23;2.37;;;2.17;;
1613;SDS011;800;48.824;9.346;2023-03-24T03:12:54;4.20;;;2.07;;
1613;SDS011;800;48.824;9.346;2023-03-24T03:15:27;2.77;;;2.30;;
1613;SDS011;800;48.824;9.346;2023-03-24T03:21:02;2.20;;;2.03;;
1613;SDS011;800;48.824;9.346;2023-03-24T03:23:37;2.50;;;2.10;;
1613;SDS011;800;48.824;9.346;2023-03-24T03:26:11;2.30;;;2.10;;
1613;SDS011;800;48.824;9.346;2023-03-24T03:28:41;3.33;;;2.50;;
1613;SDS011;800;48.824;9.346;2023-03-24T03:31:15;1.50;;;1.40;;
1613;SDS011;800;48.824;9.346;2023-03-24T03:33:48;2.27;;;2.07;;
1613;SDS011;800;48.824;9.346;2023-03-24T03:36:21;2.30;;;2.10;;
1613;SDS011;800;48.824;9.346;2023-03-24T03:41:30;1.80;;;1.70;;
1613;SDS011;800;48.824;9.346;2023-03-24T03:43:56;2.10;;;2.00;;
1613;SDS011;800;48.824;9.346;2023-03-24T03:46:22;2.10;;;2.00;;
1613;SDS011;800;48.824;9.346;2023-03-24T03:48:47;3.03;;;2.10;;
1613;SDS011;800;48.824;9.346;2023-03-24T03:51:13;2.10;;;1.90;;
1613;SDS011;800;48.824;9.346;2023-03-24T03:53:43;2.50;;;2.03;;
1613;SDS011;800;48.824;9.346;2023-03-24T03:56:09;1.93;;;1.83;;
1613;SDS011;800;48.824;9.346;2023-03-24T03:58:35;2.80;;;2.57;;
1613;SDS011;800;48.824;9.346;2023-03-24T04:01:02;2.23;;;2.07;;
1613;SDS011;800;48.824;9.346;2023-03-24T04:06:21;4.77;;;2.20;;
1613;SDS011;800;48.824;9.346;2023-03-24T04:18:05;3.03;;;1.87;;
1613;SDS011;800;48.824;9.346;2023-03-24T04:26:17;3.73;;;2.60;;
1613;SDS011;800;48.824;9.346;2023-03-24T04:29:09;2.10;;;1.60;;
1613;SDS011;800;48.824;9.346;2023-03-24T04:31:56;1.77;;;1.67;;
1613;SDS011;800;48.824;9.346;2023-03-24T04:34:31;2.23;;;2.03;;
1613;SDS011;800;48.824;9.346;2023-03-24T04:37:11;2.13;;;1.90;;
1613;SDS011;800;48.824;9.346;2023-03-24T04:39:41;4.90;;;2.30;;
1613;SDS011;800;48.824;9.346;2023-03-24T04:42:17;2.77;;;2.10;;
1613;SDS011;800;48.824;9.346;2023-03-24T04:44:46;2.30;;;2.10;;
1613;SDS011;800;48.824;9.346;2023-03-24T04:47:15;4.47;;;2.20;;
1613;SDS011;800;48.824;9.346;2023-03-24T04:49:46;2.40;;;2.00;;
1613;SDS011;800;48.824;9.346;2023-03-24T04:52:12;7.73;;;2.40;;
1613;SDS011;800;48.824;9.346;2023-03-24T04:54:38;2.60;;;2.13;;
1613;SDS011;800;48.824;9.346;2023-03-24T04:57:03;2.40;;;2.20;;
1613;SDS011;800;48.824;9.346;2023-03-24T04:59:30;2.03;;;1.93;;
1613;SDS011;800;48.824;9.346;2023-03-24T05:01:58;2.77;;;2.37;;
1613;SDS011;800;48.824;9.346;2023-03-24T05:04:24;1.90;;;1.80;;
1613;SDS011;800;48.824;9.346;2023-03-24T05:06:52;1.60;;;1.50;;
1613;SDS011;800;48.824;9.346;2023-03-24T05:09:19;3.00;;;1.73;;
1613;SDS011;800;48.824;9.346;2023-03-24T05:11:46;1.47;;;1.37;;
1613;SDS011;800;48.824;9.346;2023-03-24T05:14:12;2.00;;;1.90;;
1613;SDS011;800;48.824;9.346;2023-03-24T05:16:38;4.03;;;1.87;;
1613;SDS011;800;48.824;9.346;2023-03-24T05:19:05;1.70;;;1.60;;
1613;SDS011;800;48.824;9.346;2023-03-24T05:21:31;1.80;;;1.57;;
1613;SDS011;800;48.824;9.346;2023-03-24T05:23:57;2.20;;;1.70;;
1613;SDS011;800;48.824;9.346;2023-03-24T05:26:23;1.60;;;1.50;;
1613;SDS011;800;48.824;9.346;2023-03-24T05:28:50;3.03;;;2.00;;
1613;SDS011;800;48.824;9.346;2023-03-24T05:31:16;2.30;;;1.70;;
1613;SDS011;800;48.824;9.346;2023-03-24T05:33:42;2.90;;;1.80;;
1613;SDS011;800;48.824;9.346;2023-03-24T05:36:07;2.50;;;1.57;;
1613;SDS011;800;48.824;9.346;2023-03-24T05:38:33;1.50;;;1.40;;
1613;SDS011;800;48.824;9.346;2023-03-24T05:40:59;2.90;;;1.37;;
1613;SDS011;800;48.824;9.346;2023-03-24T05:43:25;6.77;;;2.50;;
1613;SDS011;800;48.824;9.346;2023-03-24T05:45:51;2.10;;;1.97;;
1613;SDS011;800;48.824;9.346;2023-03-24T05:48:17;1.80;;;1.70;;
1613;SDS011;800;48.824;9.346;2023-03-24T05:50:42;2.30;;;2.03;;
1613;SDS011;800;48.824;9.346;2023-03-24T05:53:08;2.13;;;1.97;;
1613;SDS011;800;48.824;9.346;2023-03-24T05:55:34;2.60;;;2.27;;
1613;SDS011;800;48.824;9.346;2023-03-24T05:58:00;3.37;;;2.50;;
1613;SDS011;800;48.824;9.346;2023-03-24T06:00:29;2.40;;;2.10;;
1613;SDS011;800;48.824;9.346;2023-03-24T06:02:56;3.80;;;2.60;;
1613;SDS011;800;48.824;9.346;2023-03-24T06:05:22;3.00;;;2.70;;
1613;SDS011;800;48.824;9.346;2023-03-24T06:07:48;2.50;;;2.23;;
1613;SDS011;800;48.824;9.346;2023-03-24T06:10:14;2.10;;;1.97;;
1613;SDS011;800;48.824;9.346;2023-03-24T06:12:42;2.53;;;2.33;;
1613;SDS011;800;48.824;9.346;2023-03-24T06:15:08;2.53;;;1.97;;
1613;SDS011;800;48.824;9.346;2023-03-24T06:17:35;3.07;;;2.23;;
1613;SDS011;800;48.824;9.346;2023-03-24T06:20:06;2.20;;;2.00;;
1613;SDS011;800;48.824;9.346;2023-03-24T06:22:38;2.70;;;2.50;;
1613;SDS011;800;48.824;9.346;2023-03-24T06:25:04;2.37;;;2.17;;
1613;SDS011;800;48.824;9.346;2023-03-24T06:27:30;3.17;;;2.73;;
1613;SDS011;800;48.824;9.346;2023-03-24T06:29:56;3.30;;;2.57;;
1613;SDS011;800;48.824;9.346;2023-03-24T06:32:22;3.10;;;2.30;;
1613;SDS011;800;48.824;9.346;2023-03-24T06:34:47;3.13;;;2.83;;
1613;SDS011;800;48.824;9.346;2023-03-24T06:37:13;2.70;;;2.27;;
1613;SDS011;800;48.824;9.346;2023-03-24T06:39:39;2.70;;;2.50;;
1613;SDS011;800;48.824;9.346;2023-03-24T06:42:05;6.43;;;3.60;;
1613;SDS011;800;48.824;9.346;2023-03-24T06:44:32;2.70;;;2.50;;
1613;SDS011;800;48.824;9.346;2023-03-24T06:46:57;2.90;;;2.70;;
1613;SDS011;800;48.824;9.346;2023-03-24T06:49:23;3.60;;;2.90;;
1613;SDS011;800;48.824;9.346;2023-03-24T06:51:49;4.87;;;2.80;;
1613;SDS011;800;48.824;9.346;2023-03-24T06:54:15;5.23;;;3.30;;
1613;SDS011;800;48.824;9.346;2023-03-24T06:56:41;7.80;;;4.70;;
1613;SDS011;800;48.824;9.346;2023-03-24T06:59:07;4.27;;;3.87;;
1613;SDS011;800;48.824;9.346;2023-03-24T07:01:33;4.70;;;4.20;;
1613;SDS011;800;48.824;9.346;2023-03-24T07:04:00;3.77;;;3.47;;
1613;SDS011;800;48.824;9.346;2023-03-24T07:06:26;6.40;;;3.00;;
1613;SDS011;800;48.824;9.346;2023-03-24T07:08:53;3.40;;;3.13;;
1613;SDS011;800;48.824;9.346;2023-03-24T07:11:19;2.40;;;2.20;;
1613;SDS011;800;48.824;9.346;2023-03-24T07:13:45;2.20;;;2.00;;
1613;SDS011;800;48.824;9.346;2023-03-24T07:16:10;3.90;;;2.83;;
1613;SDS011;800;48.824;9.346;2023-03-24T07:18:36;5.17;;;3.50;;
1613;SDS011;800;48.824;9.346;2023-03-24T07:21:02;3.20;;;2.80;;
1613;SDS011;800;48.824;9.346;2023-03-24T07:23:28;3.80;;;2.60;;
1613;SDS011;800;48.824;9.346;2023-03-24T07:25:54;3.00;;;2.70;;
1613;SDS011;800;48.824;9.346;2023-03-24T07:28:20;2.83;;;2.63;;
1613;SDS011;800;48.824;9.346;2023-03-24T07:30:45;4.30;;;3.10;;
1613;SDS011;800;48.824;9.346;2023-03-24T07:33:11;2.97;;;2.57;;
1613;SDS011;800;48.824;9.346;2023-03-24T07:35:40;2.60;;;2.40;;
1613;SDS011;800;48.824;9.346;2023-03-24T07:38:06;3.20;;;2.80;;
1613;SDS011;800;48.824;9.346;2023-03-24T07:40:32;3.37;;;3.07;;
1613;SDS011;800;48.824;9.346;2023-03-24T07:43:02;2.90;;;2.70;;
1613;SDS011;800;48.824;9.346;2023-03-24T07:45:29;3.03;;;2.47;;
1613;SDS011;800;48.824;9.346;2023-03-24T07:47:55;3.03;;;2.60;;
1613;SDS011;800;48.824;9.346;2023-03-24T07:50:25;3.40;;;2.80;;
1613;SDS011;800;48.824;9.346;2023-03-24T07:52:52;3.37;;;2.37;;
1613;SDS011;800;48.824;9.346;2023-03-24T07:55:18;4.60;;;2.70;;
1613;SDS011;800;48.824;9.346;2023-03-24T07:57:46;3.97;;;2.70;;
1613;SDS011;800;48.824;9.346;2023-03-24T08:00:13;4.53;;;2.47;;
1613;SDS011;800;48.824;9.346;2023-03-24T08:02:44;2.50;;;2.30;;
1613;SDS011;800;48.824;9.346;2023-03-24T08:05:11;4.57;;;2.50;;
1613;SDS011;800;48.824;9.346;2023-03-24T08:07:38;3.10;;;2.50;;
1613;SDS011;800;48.824;9.346;2023-03-24T08:10:07;3.20;;;2.80;;
1613;SDS011;800;48.824;9.346;2023-03-24T08:12:36;3.53;;;2.30;;
1613;SDS011;800;48.824;9.346;2023-03-24T08:15:02;3.80;;;2.87;;
1613;SDS011;800;48.824;9.346;2023-03-24T08:17:29;4.60;;;3.00;;
1613;SDS011;800;48.824;9.346;2023-03-24T08:19:54;3.50;;;2.50;;
1613;SDS011;800;48.824;9.346;2023-03-24T08:22:20;3.93;;;2.93;;
1613;SDS011;800;48.824;9.346;2023-03-24T08:24:46;3.10;;;2.80;;
1613;SDS011;800;48.824;9.346;2023-03-24T08:27:11;3.37;;;3.07;;
1613;SDS011;800;48.824;9.346;2023-03-24T08:29:37;3.20;;;2.80;;
1613;SDS011;800;48.824;9.346;2023-03-24T08:32:03;3.00;;;2.80;;
1613;SDS011;800;48.824;9.346;2023-03-24T08:34:28;2.87;;;2.53;;
1613;SDS011;800;48.824;9.346;2023-03-24T08:36:54;2.80;;;2.60;;
1613;SDS011;800;48.824;9.346;2023-03-24T08:39:20;2.97;;;2.77;;
1613;SDS011;800;48.824;9.346;2023-03-24T08:41:46;3.30;;;3.10;;
1613;SDS011;800;48.824;9.346;2023-03-24T08:44:14;4.67;;;3.40;;
1613;SDS011;800;48.824;9.346;2023-03-24T08:46:40;4.87;;;3.10;;
1613;SDS011;800;48.824;9.346;2023-03-24T08:49:06;3.73;;;3.23;;
1613;SDS011;800;48.824;9.346;2023-03-24T08:51:31;2.90;;;2.70;;
1613;SDS011;800;48.824;9.346;2023-03-24T08:53:58;3.70;;;2.90;;
1613;SDS011;800;48.824;9.346;2023-03-24T08:56:27;2.97;;;2.77;;
1613;SDS011;800;48.824;9.346;2023-03-24T08:58:53;3.70;;;3.30;;
1613;SDS011;800;48.824;9.346;2023-03-24T09:01:19;3.20;;;3.00;;
1613;SDS011;800;48.824;9.346;2023-03-24T09:03:46;2.57;;;2.30;;
1613;SDS011;800;48.824;9.346;2023-03-24T09:06:12;4.17;;;3.17;;
1613;SDS011;800;48.824;9.346;2023-03-24T09:08:38;4.33;;;2.40;;
1613;SDS011;800;48.824;9.346;2023-03-24T09:11:05;2.13;;;2.03;;
1613;SDS011;800;48.824;9.346;2023-03-24T09:13:31;3.87;;;2.40;;
1613;SDS011;800;48.824;9.346;2023-03-24T09:15:57;2.60;;;2.40;;
1613;SDS011;800;48.824;9.346;2023-03-24T09:18:25;3.40;;;3.20;;
1613;SDS011;800;48.824;9.346;2023-03-24T09:20:51;4.53;;;2.47;;
1613;SDS011;800;48.824;9.346;2023-03-24T09:23:17;6.07;;;2.50;;
1613;SDS011;800;48.824;9.346;2023-03-24T09:25:43;3.90;;;3.23;;
1613;SDS011;800;48.824;9.346;2023-03-24T09:28:09;4.50;;;3.40;;
1613;SDS011;800;48.824;9.346;2023-03-24T09:30:35;3.80;;;3.20;;
1613;SDS011;800;48.824;9.346;2023-03-24T09:33:01;3.73;;;3.43;;
1613;SDS011;800;48.824;9.346;2023-03-24T09:35:27;3.83;;;3.10;;
1613;SDS011;800;48.824;9.346;2023-03-24T09:37:53;2.87;;;2.67;;
1613;SDS011;800;48.824;9.346;2023-03-24T09:40:21;2.80;;;2.60;;
1613;SDS011;800;48.824;9.346;2023-03-24T09:42:54;2.80;;;2.60;;
1613;SDS011;800;48.824;9.346;2023-03-24T09:45:25;2.73;;;2.43;;
1613;SDS011;800;48.824;9.346;2023-03-24T09:47:53;3.20;;;2.80;;
1613;SDS011;800;48.824;9.346;2023-03-24T09:52:53;3.00;;;2.37;;
1613;SDS011;800;48.824;9.346;2023-03-24T09:55:26;2.80;;;2.60;;
1613;SDS011;800;48.824;9.346;2023-03-24T09:57:53;3.27;;;2.40;;
1613;SDS011;800;48.824;9.346;2023-03-24T10:00:25;2.70;;;2.17;;
1613;SDS011;800;48.824;9.346;2023-03-24T10:03:01;3.80;;;2.53;;
1613;SDS011;800;48.824;9.346;2023-03-24T10:05:49;2.67;;;2.40;;
1613;SDS011;800;48.824;9.346;2023-03-24T10:08:27;2.80;;;2.60;;
1613;SDS011;800;48.824;9.346;2023-03-24T10:11:03;2.50;;;2.30;;
1613;SDS011;800;48.824;9.346;2023-03-24T10:17:04;4.43;;;2.17;;
1613;SDS011;800;48.824;9.346;2023-03-24T10:19:57;3.73;;;2.20;;
1613;SDS011;800;48.824;9.346;2023-03-24T10:22:36;2.30;;;2.10;;
1613;SDS011;800;48.824;9.346;2023-03-24T10:27:53;2.40;;;2.20;;
1613;SDS011;800;48.824;9.346;2023-03-24T10:30:25;2.43;;;2.17;;
1613;SDS011;800;48.824;9.346;2023-03-24T10:32:57;2.53;;;2.20;;
1613;SDS011;800;48.824;9.346;2023-03-24T10:35:31;3.30;;;2.40;;
1613;SDS011;800;48.824;9.346;2023-03-24T10:37:59;2.00;;;1.90;;
1613;SDS011;800;48.824;9.346;2023-03-24T10:40:29;3.90;;;1.90;;
1613;SDS011;800;48.824;9.346;2023-03-24T10:42:57;2.23;;;1.97;;
1613;SDS011;800;48.824;9.346;2023-03-24T10:45:26;2.10;;;1.70;;
1613;SDS011;800;48.824;9.346;2023-03-24T10:47:56;1.90;;;1.80;;
1613;SDS011;800;48.824;9.346;2023-03-24T10:50:26;2.37;;;2.07;;
1613;SDS011;800;48.824;9.346;2023-03-24T10:52:53;1.83;;;1.53;;
1613;SDS011;800;48.824;9.346;2023-03-24T10:55:21;1.83;;;1.70;;
1613;SDS011;800;48.824;9.346;2023-03-24T10:57:49;2.03;;;1.67;;
1613;SDS011;800;48.824;9.346;2023-03-24T11:03:09;2.30;;;1.37;;
1613;SDS011;800;48.824;9.346;2023-03-24T11:05:39;2.10;;;1.50;;
1613;SDS011;800;48.824;9.346;2023-03-24T11:08:18;1.47;;;1.37;;
1613;SDS011;800;48.824;9.346;2023-03-24T11:10:51;2.57;;;1.77;;
1613;SDS011;800;48.824;9.346;2023-03-24T11:13:34;1.40;;;1.30;;
1613;SDS011;800;48.824;9.346;2023-03-24T11:16:10;2.57;;;1.13;;
1613;SDS011;800;48.824;9.346;2023-03-24T11:21:22;1.40;;;1.30;;
1613;SDS011;800;48.824;9.346;2023-03-24T11:23:48;2.60;;;1.47;;
1613;SDS011;800;48.824;9.346;2023-03-24T11:26:21;2.83;;;1.60;;
1613;SDS011;800;48.824;9.346;2023-03-24T11:28:55;1.37;;;1.27;;
1613;SDS011;800;48.824;9.346;2023-03-24T11:31:27;1.10;;;1.00;;
1613;SDS011;800;48.824;9.346;2023-03-24T11:34:05;1.27;;;1.23;;
1613;SDS011;800;48.824;9.346;2023-03-24T11:39:17;2.90;;;1.50;;
1613;SDS011;800;48.824;9.346;2023-03-24T11:41:53;1.50;;;1.40;;
1613;SDS011;800;48.824;9.346;2023-03-24T11:44:30;1.67;;;1.33;;
1613;SDS011;800;48.824;9.346;2023-03-24T11:47:47;3.10;;;1.07;;
1613;SDS011;800;48.824;9.346;2023-03-24T11:55:08;2.37;;;1.20;;
1613;SDS011;800;48.824;9.346;2023-03-24T11:57:43;1.17;;;1.07;;
1613;SDS011;800;48.824;9.346;2023-03-24T12:05:57;2.60;;;0.93;;
1613;SDS011;800;48.824;9.346;2023-03-24T12:14:18;4.83;;;1.07;;
1613;SDS011;800;48.824;9.346;2023-03-24T12:17:12;0.60;;;0.60;;
1613;SDS011;800;48.824;9.346;2023-03-24T12:24:59;1.20;;;1.10;;
1613;SDS011;800;48.824;9.346;2023-03-24T12:30:27;1.00;;;0.87;;
1613;SDS011;800;48.824;9.346;2023-03-24T12:35:28;0.70;;;0.70;;
1613;SDS011;800;48.824;9.346;2023-03-24T12:38:24;0.70;;;0.70;;
1613;SDS011;800;48.824;9.346;2023-03-24T12:46:44;0.70;;;0.70;;
1613;SDS011;800;48.824;9.346;2023-03-24T12:49:38;1.07;;;0.80;;
1613;SDS011;800;48.824;9.346;2023-03-24T12:55:11;0.70;;;0.70;;
1613;SDS011;800;48.824;9.346;2023-03-24T12:57:59;0.83;;;0.73;;
1613;SDS011;800;48.824;9.346;2023-03-24T13:00:42;0.93;;;0.80;;
1613;SDS011;800;48.824;9.346;2023-03-24T13:03:13;1.90;;;0.63;;
1613;SDS011;800;48.824;9.346;2023-03-24T13:05:46;0.87;;;0.87;;
1613;SDS011;800;48.824;9.346;2023-03-24T13:08:18;0.80;;;0.80;;
1613;SDS011;800;48.824;9.346;2023-03-24T13:10:53;0.70;;;0.70;;
1613;SDS011;800;48.824;9.346;2023-03-24T13:13:36;0.70;;;0.70;;
1613;SDS011;800;48.824;9.346;2023-03-24T13:16:08;1.10;;;1.00;;
1613;SDS011;800;48.824;9.346;2023-03-24T13:18:43;0.87;;;0.83;;
1613;SDS011;800;48.824;9.346;2023-03-24T13:21:14;1.63;;;0.90;;
1613;SDS011;800;48.824;9.346;2023-03-24T13:23:51;1.13;;;0.90;;
1613;SDS011;800;48.824;9.346;2023-03-24T13:29:24;0.80;;;0.70;;
1613;SDS011;800;48.824;9.346;2023-03-24T13:37:31;1.27;;;0.83;;
1613;SDS011;800;48.824;9.346;2023-03-24T13:40:06;1.30;;;0.90;;
1613;SDS011;800;48.824;9.346;2023-03-24T13:42:36;1.13;;;1.03;;
1613;SDS011;800;48.824;9.346;2023-03-24T13:45:20;1.00;;;0.90;;
1613;SDS011;800;48.824;9.346;2023-03-24T13:50:14;3.80;;;1.10;;
1613;SDS011;800;48.824;9.346;2023-03-24T13:52:47;1.33;;;1.10;;
1613;SDS011;800;48.824;9.346;2023-03-24T13:55:19;2.00;;;1.30;;
1613;SDS011;800;48.824;9.346;2023-03-24T13:58:10;1.93;;;1.17;;
1613;SDS011;800;48.824;9.346;2023-03-24T14:03:42;2.50;;;1.27;;
1613;SDS011;800;48.824;9.346;2023-03-24T14:06:10;2.10;;;0.80;;
1613;SDS011;800;48.824;9.346;2023-03-24T14:08:41;4.40;;;1.30;;
1613;SDS011;800;48.824;9.346;2023-03-24T14:16:43;1.63;;;1.30;;
1613;SDS011;800;48.824;9.346;2023-03-24T14:19:35;1.40;;;1.10;;
1613;SDS011;800;48.824;9.346;2023-03-24T14:24:37;1.13;;;1.03;;
1613;SDS011;800;48.824;9.346;2023-03-24T14:28:05;1.30;;;1.10;;
1613;SDS011;800;48.824;9.346;2023-03-24T14:30:17;0.93;;;0.80;;
1613;SDS011;800;48.824;9.346;2023-03-24T14:32:52;2.60;;;0.77;;
1613;SDS011;800;48.824;9.346;2023-03-24T14:35:25;2.53;;;1.30;;
1613;SDS011;800;48.824;9.346;2023-03-24T14:40:44;3.47;;;1.17;;
1613;SDS011;800;48.824;9.346;2023-03-24T14:48:30;1.47;;;1.10;;
1613;SDS011;800;48.824;9.346;2023-03-24T14:53:56;1.13;;;0.97;;
1613;SDS011;800;48.824;9.346;2023-03-24T14:56:22;1.67;;;1.20;;
1613;SDS011;800;48.824;9.346;2023-03-24T14:58:52;5.23;;;1.40;;
1613;SDS011;800;48.824;9.346;2023-03-24T15:01:23;1.33;;;1.23;;
1613;SDS011;800;48.824;9.346;2023-03-24T15:03:54;2.80;;;1.20;;
1613;SDS011;800;48.824;9.346;2023-03-24T15:06:28;3.70;;;1.77;;
1613;SDS011;800;48.824;9.346;2023-03-24T15:08:56;3.73;;;1.20;;
1613;SDS011;800;48.824;9.346;2023-03-24T15:11:27;2.33;;;1.17;;
1613;SDS011;800;48.824;9.346;2023-03-24T15:13:56;1.03;;;0.87;;
1613;SDS011;800;48.824;9.346;2023-03-24T15:16:24;5.03;;;1.20;;
1613;SDS011;800;48.824;9.346;2023-03-24T15:18:59;3.10;;;1.00;;
1613;SDS011;800;48.824;9.346;2023-03-24T15:21:45;2.10;;;0.87;;
1613;SDS011;800;48.824;9.346;2023-03-24T15:27:32;1.17;;;1.07;;
1613;SDS011;800;48.824;9.346;2023-03-24T15:29:39;5.20;;;1.30;;
1613;SDS011;800;48.824;9.346;2023-03-24T15:32:09;5.53;;;1.63;;
1613;SDS011;800;48.824;9.346;2023-03-24T15:34:44;1.90;;;1.33;;
1613;SDS011;800;48.824;9.346;2023-03-24T15:39:56;2.20;;;1.33;;
1613;SDS011;800;48.824;9.346;2023-03-24T15:42:22;2.00;;;0.90;;
1613;SDS011;800;48.824;9.346;2023-03-24T15:44:49;3.90;;;1.57;;
1613;SDS011;800;48.824;9.346;2023-03-24T15:47:20;2.50;;;1.77;;
1613;SDS011;800;48.824;9.346;2023-03-24T15:49:50;2.30;;;1.03;;
1613;SDS011;800;48.824;9.346;2023-03-24T15:55:07;1.87;;;1.10;;
1613;SDS011;800;48.824;9.346;2023-03-24T15:57:40;1.80;;;1.10;;
1613;SDS011;800;48.824;9.346;2023-03-24T16:00:10;1.17;;;1.07;;
1613;SDS011;800;48.824;9.346;2023-03-24T16:02:46;1.07;;;1.00;;
1613;SDS011;800;48.824;9.346;2023-03-24T16:08:01;1.53;;;1.40;;
1613;SDS011;800;48.824;9.346;2023-03-24T16:15:59;1.60;;;1.40;;
1613;SDS011;800;48.824;9.346;2023-03-24T16:18:35;0.80;;;0.80;;
1613;SDS011;800;48.824;9.346;2023-03-24T16:21:08;0.73;;;0.73;;
1613;SDS011;800;48.824;9.346;2023-03-24T16:23:48;2.30;;;0.97;;
1613;SDS011;800;48.824;9.346;2023-03-24T16:26:15;2.20;;;0.80;;
1613;SDS011;800;48.824;9.346;2023-03-24T16:28:46;0.80;;;0.70;;
1613;SDS011;800;48.824;9.346;2023-03-24T16:31:22;0.90;;;0.90;;
1613;SDS011;800;48.824;9.346;2023-03-24T16:33:51;0.70;;;0.70;;
1613;SDS011;800;48.824;9.346;2023-03-24T16:36:18;0.70;;;0.70;;
1613;SDS011;800;48.824;9.346;2023-03-24T16:38:48;0.90;;;0.80;;
1613;SDS011;800;48.824;9.346;2023-03-24T16:41:14;1.50;;;1.40;;
1613;SDS011;800;48.824;9.346;2023-03-24T16:43:40;2.77;;;1.00;;
1613;SDS011;800;48.824;9.346;2023-03-24T16:46:49;1.70;;;1.10;;
1613;SDS011;800;48.824;9.346;2023-03-24T16:48:58;1.10;;;1.00;;
1613;SDS011;800;48.824;9.346;2023-03-24T16:51:25;1.40;;;0.90;;
1613;SDS011;800;48.824;9.346;2023-03-24T16:53:51;1.07;;;0.93;;
1613;SDS011;800;48.824;9.346;2023-03-24T16:56:18;0.90;;;0.90;;
1613;SDS011;800;48.824;9.346;2023-03-24T16:58:45;1.07;;;0.97;;
1613;SDS011;800;48.824;9.346;2023-03-24T17:01:14;1.23;;;1.10;;
1613;SDS011;800;48.824;9.346;2023-03-24T17:03:54;1.10;;;1.00;;
1613;SDS011;800;48.824;9.346;2023-03-24T17:06:22;1.77;;;0.90;;
1613;SDS011;800;48.824;9.346;2023-03-24T17:08:49;1.20;;;1.10;;
1613;SDS011;800;48.824;9.346;2023-03-24T17:11:15;1.30;;;1.20;;
1613;SDS011;800;48.824;9.346;2023-03-24T17:13:47;1.00;;;1.00;;
1613;SDS011;800;48.824;9.346;2023-03-24T17:16:13;1.47;;;1.20;;
1613;SDS011;800;48.824;9.346;2023-03-24T17:18:40;1.80;;;1.33;;
1613;SDS011;800;48.824;9.346;2023-03-24T17:21:15;0.93;;;0.93;;
1613;SDS011;800;48.824;9.346;2023-03-24T17:23:44;1.20;;;1.10;;
1613;SDS011;800;48.824;9.346;2023-03-24T17:26:13;1.30;;;1.20;;
1613;SDS011;800;48.824;9.346;2023-03-24T17:28:40;1.30;;;1.20;;
1613;SDS011;800;48.824;9.346;2023-03-24T17:31:06;1.07;;;1.07;;
1613;SDS011;800;48.824;9.346;2023-03-24T17:33:32;2.60;;;1.40;;
1613;SDS011;800;48.824;9.346;2023-03-24T17:35:58;1.10;;;1.00;;
1613;SDS011;800;48.824;9.346;2023-03-24T17:38:23;1.90;;;1.70;;
1613;SDS011;800;48.824;9.346;2023-03-24T17:40:57;3.87;;;1.60;;
1613;SDS011;800;48.824;9.346;2023-03-24T17:43:27;1.50;;;1.27;;
1613;SDS011;800;48.824;9.346;2023-03-24T17:45:57;1.70;;;1.30;;
1613;SDS011;800;48.824;9.346;2023-03-24T17:48:24;1.43;;;1.33;;
1613;SDS011;800;48.824;9.346;2023-03-24T17:50:50;1.93;;;1.83;;
1613;SDS011;800;48.824;9.346;2023-03-24T17:53:17;1.80;;;1.47;;
1613;SDS011;800;48.824;9.346;2023-03-24T17:55:50;4.10;;;1.80;;
1613;SDS011;800;48.824;9.346;2023-03-24T17:58:16;1.20;;;1.00;;
1613;SDS011;800;48.824;9.346;2023-03-24T18:00:42;1.57;;;1.30;;
1613;SDS011;800;48.824;9.346;2023-03-24T18:03:07;1.50;;;1.40;;
1613;SDS011;800;48.824;9.346;2023-03-24T18:05:33;2.20;;;1.80;;
1613;SDS011;800;48.824;9.346;2023-03-24T18:07:58;1.67;;;1.30;;
1613;SDS011;800;48.824;9.346;2023-03-24T18:10:24;1.33;;;1.23;;
1613;SDS011;800;48.824;9.346;2023-03-24T18:12:50;1.90;;;1.40;;
1613;SDS011;800;48.824;9.346;2023-03-24T18:15:17;1.43;;;1.33;;
1613;SDS011;800;48.824;9.346;2023-03-24T18:17:42;1.20;;;1.10;;